X  Chiuso Dati meteorologici dell'aviazione (METAR)     LIPZ Venice Marco Polo Airport
Temperatura
21°C Temperatura
16°C Punto di rugiada
73% Umidità



Vento
11 KM/O
7 MPH
3 M/S
6 KTS



160°
SSE
Condizioni attuali

Chiaro Chiaro
Pressione 1014.9 (hPa) - 29.97 (inHg)
Visibilità 6 (miglio) - 9.7 (km)
Aeroporto
Codice-Aeroporto LIPZ

Posizione: Venice Marco Polo Airport
Distanza: 26 (km)

Metar:
LIPZ 142020Z 16006KT CAVOK 21/16 Q1015 NOSIG

Ore: 14-06-2024 22:20 CEST